createdAt,value
2019-02-28T06:25:48.772Z,57.63
2019-02-28T06:28:19.738Z,60.60
2019-02-28T06:30:50.629Z,60.13
2019-02-28T06:33:21.449Z,60.50
2019-02-28T06:35:53.710Z,51.80
2019-02-28T06:38:25.200Z,56.90
2019-02-28T06:40:55.628Z,51.67
2019-02-28T06:43:26.317Z,57.77
2019-02-28T06:45:57.310Z,68.17
2019-02-28T06:48:28.038Z,48.43
2019-02-28T06:50:58.520Z,60.03
2019-02-28T06:53:33.721Z,57.00
2019-02-28T06:56:03.207Z,58.67
2019-02-28T06:58:33.988Z,55.60
2019-02-28T07:01:04.959Z,40.77
2019-02-28T07:03:39.025Z,64.30
2019-02-28T07:06:07.835Z,66.23
2019-02-28T07:08:41.196Z,60.10
2019-02-28T07:11:12.247Z,66.60
2019-02-28T07:13:43.081Z,42.07
2019-02-28T07:16:13.568Z,38.33
2019-02-28T07:18:44.623Z,39.10
2019-02-28T07:21:15.679Z,27.90
2019-02-28T07:23:46.533Z,35.03
2019-02-28T07:26:18.756Z,40.97
2019-02-28T07:28:49.558Z,45.57
2019-02-28T07:31:24.655Z,32.33
2019-02-28T07:33:54.897Z,42.70
2019-02-28T07:36:25.603Z,35.10
2019-02-28T07:38:57.789Z,33.67
2019-02-28T07:41:28.721Z,33.33
2019-02-28T07:43:59.763Z,26.93
2019-02-28T07:46:31.803Z,33.43
2019-02-28T07:49:02.564Z,34.93
2019-02-28T07:51:33.741Z,35.43
2019-02-28T07:54:05.468Z,43.70
2019-02-28T07:56:42.534Z,41.00
2019-02-28T07:59:08.690Z,42.47
2019-02-28T08:01:39.438Z,29.27
2019-02-28T08:04:11.236Z,35.83
2019-02-28T08:06:41.939Z,36.90
2019-02-28T08:09:41.561Z,37.67
2019-02-28T08:12:12.336Z,35.57
2019-02-28T08:14:43.640Z,33.90
2019-02-28T08:17:15.750Z,30.87
2019-02-28T08:19:46.864Z,66.60
2019-02-28T08:22:23.300Z,35.00
2019-02-28T08:24:49.825Z,50.20
2019-02-28T08:27:20.622Z,31.17
2019-02-28T08:29:51.265Z,27.07
2019-02-28T08:32:23.073Z,31.03
2019-02-28T08:34:55.518Z,37.77
2019-02-28T08:37:26.563Z,36.87
2019-02-28T08:39:57.219Z,29.90
2019-02-28T08:42:28.156Z,35.97
2019-02-28T08:44:59.192Z,21.03
2019-02-28T08:47:29.784Z,58.37
2019-02-28T08:50:00.562Z,37.87
2019-02-28T08:52:31.422Z,25.70
2019-02-28T08:55:02.821Z,28.80
2019-02-28T08:57:34.347Z,33.20
2019-02-28T09:00:06.270Z,22.13
2019-02-28T09:02:38.734Z,21.63
2019-02-28T09:05:09.912Z,24.40
2019-02-28T09:07:40.632Z,22.50
2019-02-28T09:10:16.633Z,38.23
2019-02-28T09:12:47.114Z,40.27
2019-02-28T09:15:18.672Z,23.40
2019-02-28T09:17:49.995Z,25.20
2019-02-28T09:20:20.980Z,41.93
2019-02-28T09:22:52.150Z,27.03
2019-02-28T09:25:22.905Z,56.40
2019-02-28T09:27:53.546Z,19.27
2019-02-28T09:30:30.611Z,36.03
2019-02-28T09:33:01.498Z,13.73
2019-02-28T09:35:32.516Z,86.47
2019-02-28T09:38:06.421Z,21.60
2019-02-28T09:40:35.226Z,17.17
2019-02-28T09:43:06.195Z,19.43
2019-02-28T09:45:39.816Z,21.63
2019-02-28T09:48:09.807Z,27.07
2019-02-28T09:50:40.553Z,21.33
2019-02-28T09:53:15.520Z,18.50
2019-02-28T09:55:43.860Z,18.50
2019-02-28T09:58:14.492Z,59.37
2019-02-28T10:00:46.846Z,22.17
2019-02-28T10:03:18.672Z,57.87
2019-02-28T10:05:49.989Z,35.93
2019-02-28T10:08:21.779Z,45.27
2019-02-28T10:10:55.457Z,57.90
2019-02-28T10:13:24.944Z,35.73
2019-02-28T10:15:55.693Z,25.43
2019-02-28T10:18:26.655Z,24.97
2019-02-28T10:20:59.050Z,23.97
2019-02-28T10:23:29.724Z,69.60
2019-02-28T10:26:00.469Z,37.23
2019-02-28T10:28:31.291Z,28.60
2019-02-28T10:31:01.888Z,24.80
2019-02-28T10:33:32.601Z,52.43
2019-02-28T10:36:03.074Z,31.93
2019-02-28T10:38:33.953Z,55.47
2019-02-28T10:41:04.729Z,23.80
2019-02-28T10:43:35.705Z,62.50
2019-02-28T10:46:06.604Z,26.80
2019-02-28T10:48:50.235Z,22.93
2019-02-28T10:51:14.081Z,20.20
2019-02-28T10:53:42.992Z,29.13
2019-02-28T10:56:14.487Z,28.90
2019-02-28T10:58:47.120Z,31.30
2019-02-28T11:01:18.283Z,32.73
2019-02-28T11:03:48.986Z,39.57
2019-02-28T11:06:19.694Z,30.10
2019-02-28T11:08:50.394Z,24.07
2019-02-28T11:11:20.977Z,29.87
2019-02-28T11:13:53.522Z,35.37
2019-02-28T11:16:24.551Z,31.73
2019-02-28T11:18:55.171Z,32.47
2019-02-28T11:21:26.351Z,28.03
2019-02-28T11:23:56.881Z,28.20
2019-02-28T11:26:28.987Z,36.67
2019-02-28T11:29:02.872Z,28.90
2019-02-28T11:31:32.229Z,35.63
2019-02-28T11:34:03.577Z,37.30
2019-02-28T11:36:34.944Z,37.77
2019-02-28T11:39:07.471Z,42.20
2019-02-28T11:41:38.287Z,30.33
2019-02-28T11:44:09.219Z,27.20
2019-02-28T11:46:41.444Z,34.10
2019-02-28T11:49:13.688Z,26.30
2019-02-28T11:51:44.522Z,39.13
2019-02-28T11:54:15.169Z,28.57
2019-02-28T11:56:45.955Z,44.00
2019-02-28T11:59:16.827Z,49.00
2019-02-28T12:01:48.508Z,29.93
2019-02-28T12:04:19.141Z,41.23
2019-02-28T12:06:50.364Z,34.33
2019-02-28T12:09:21.159Z,30.73
2019-02-28T12:11:52.235Z,38.30
2019-02-28T12:14:22.920Z,35.80
2019-02-28T12:16:53.788Z,23.57
2019-02-28T12:19:24.362Z,42.57
2019-02-28T12:21:55.274Z,24.13
2019-02-28T12:24:25.901Z,28.87
2019-02-28T12:26:56.759Z,26.23
2019-02-28T12:29:27.269Z,24.93
2019-02-28T12:31:58.269Z,24.87
2019-02-28T12:34:29.977Z,33.63
2019-02-28T12:37:00.597Z,20.03
2019-02-28T12:39:33.417Z,25.37
2019-02-28T12:42:03.689Z,22.17
2019-02-28T12:44:34.650Z,19.33
2019-02-28T12:47:06.483Z,20.70
2019-02-28T12:49:39.167Z,23.47
2019-02-28T12:52:11.330Z,24.33
2019-02-28T12:54:42.175Z,28.20
2019-02-28T12:57:13.312Z,23.63
2019-02-28T12:59:45.828Z,24.87
2019-02-28T13:02:16.320Z,23.37
2019-02-28T13:04:47.467Z,32.13
2019-02-28T13:07:18.207Z,30.50
2019-02-28T13:09:51.465Z,41.77
2019-02-28T13:12:21.553Z,22.63
2019-02-28T13:14:52.287Z,28.80
2019-02-28T13:17:23.234Z,42.20
2019-02-28T13:19:56.644Z,23.07
2019-02-28T13:22:26.088Z,25.80
2019-02-28T13:24:56.761Z,28.77
2019-02-28T13:27:27.604Z,60.43
2019-02-28T13:29:59.731Z,27.97
2019-02-28T13:32:33.756Z,22.40
2019-02-28T13:35:07.446Z,21.07
2019-02-28T13:37:37.507Z,17.57
2019-02-28T13:40:09.463Z,43.90
2019-02-28T13:42:42.166Z,35.43
2019-02-28T13:45:19.345Z,22.73
2019-02-28T13:47:47.870Z,28.20
2019-02-28T13:50:22.024Z,25.27
2019-02-28T13:52:53.413Z,19.97
2019-02-28T13:55:26.207Z,22.33
2019-02-28T13:57:57.087Z,29.67
2019-02-28T14:00:29.617Z,29.57
2019-02-28T14:03:08.853Z,21.07
2019-02-28T14:05:40.930Z,21.53
2019-02-28T14:08:10.995Z,21.27
2019-02-28T14:10:40.520Z,22.40
2019-02-28T14:13:11.241Z,25.37
2019-02-28T14:15:43.583Z,35.57
2019-02-28T14:18:14.874Z,29.87
2019-02-28T14:20:45.774Z,28.37
2019-02-28T14:23:20.085Z,39.27
2019-02-28T14:25:48.996Z,27.47
2019-02-28T14:28:19.875Z,28.50
2019-02-28T14:30:50.550Z,47.30
2019-02-28T14:33:22.677Z,31.43
2019-02-28T14:35:53.540Z,28.40
2019-02-28T14:38:26.013Z,37.57
2019-02-28T14:40:56.801Z,25.60
2019-02-28T14:43:27.587Z,29.30
2019-02-28T14:45:58.225Z,36.13
2019-02-28T14:48:28.919Z,27.60
2019-02-28T14:50:59.733Z,26.53
2019-02-28T14:53:30.315Z,25.97
2019-02-28T14:56:01.195Z,27.73
2019-02-28T14:58:32.273Z,37.77
2019-02-28T15:01:03.193Z,25.20
2019-02-28T15:03:35.889Z,27.63
2019-02-28T15:06:07.117Z,27.53
2019-02-28T15:08:38.235Z,23.90
2019-02-28T15:11:10.154Z,32.30
2019-02-28T15:13:41.674Z,21.13
2019-02-28T15:16:13.750Z,29.00
2019-02-28T15:18:47.375Z,26.57
2019-02-28T15:21:17.542Z,29.47
2019-02-28T15:23:48.274Z,32.83
2019-02-28T15:26:18.869Z,23.43
2019-02-28T15:28:50.533Z,16.33
2019-02-28T15:31:22.674Z,15.83
2019-02-28T15:33:54.102Z,17.97
2019-02-28T15:36:25.070Z,15.23
2019-02-28T15:38:56.249Z,14.70
2019-02-28T15:41:27.134Z,19.27
2019-02-28T15:43:58.319Z,18.13
2019-02-28T15:46:29.225Z,19.43
2019-02-28T15:48:59.949Z,15.57
2019-02-28T15:51:30.959Z,21.50
2019-02-28T15:54:02.034Z,13.97
2019-02-28T15:56:33.020Z,27.03
2019-02-28T15:59:03.723Z,23.27
2019-02-28T16:01:34.481Z,16.80
2019-02-28T16:04:06.650Z,18.77
2019-02-28T16:06:38.118Z,22.77
2019-02-28T16:09:14.210Z,46.33
2019-02-28T16:11:44.980Z,20.30
2019-02-28T16:14:15.926Z,31.20
2019-02-28T16:16:46.771Z,26.23
2019-02-28T16:19:18.883Z,20.87
2019-02-28T16:21:51.057Z,25.40
2019-02-28T16:24:23.509Z,22.77
2019-02-28T16:26:56.770Z,23.53
2019-02-28T16:29:26.760Z,26.57
2019-02-28T16:31:57.773Z,28.77
2019-02-28T16:34:28.913Z,28.80
2019-02-28T16:37:01.127Z,41.27
2019-02-28T16:39:32.897Z,32.87
2019-02-28T16:42:03.731Z,31.97
2019-02-28T16:44:34.365Z,34.63
2019-02-28T16:47:05.320Z,25.33
2019-02-28T16:49:35.963Z,25.37
2019-02-28T16:52:07.062Z,34.63
2019-02-28T16:54:38.462Z,26.00
2019-02-28T16:57:12.335Z,29.40
2019-02-28T16:59:43.287Z,24.40
2019-02-28T17:02:16.123Z,28.50
2019-02-28T17:04:48.630Z,24.00
2019-02-28T17:07:21.012Z,25.03
2019-02-28T17:09:52.021Z,26.83
2019-02-28T17:12:42.296Z,36.67
2019-02-28T17:15:23.207Z,25.27
2019-02-28T17:18:00.739Z,29.10
2019-02-28T17:20:32.155Z,39.80
2019-02-28T17:23:03.470Z,32.23
2019-02-28T17:25:34.874Z,30.80
2019-02-28T17:28:15.245Z,49.23
2019-02-28T17:31:11.529Z,36.23
2019-02-28T17:33:46.803Z,29.87
2019-02-28T17:36:17.594Z,34.30
2019-02-28T17:38:50.190Z,32.03
2019-02-28T17:41:22.026Z,34.33
2019-02-28T17:44:41.399Z,36.37
2019-02-28T17:47:36.393Z,30.77
2019-02-28T17:50:43.983Z,32.23
2019-02-28T17:53:42.008Z,34.33
2019-02-28T17:56:53.737Z,29.63
2019-02-28T17:59:44.213Z,34.00
2019-02-28T18:03:21.081Z,28.97
2019-02-28T18:06:29.372Z,29.53
2019-02-28T18:09:16.362Z,34.53
2019-02-28T18:12:14.985Z,30.97
2019-02-28T18:14:50.791Z,30.80
2019-02-28T18:17:49.119Z,31.53
2019-02-28T18:21:04.151Z,36.47
2019-02-28T18:24:19.090Z,32.67
2019-02-28T18:27:25.203Z,38.83
2019-02-28T18:30:35.156Z,35.23
2019-02-28T18:33:06.710Z,39.83
2019-02-28T18:35:38.781Z,32.33
2019-02-28T18:38:09.736Z,43.73
2019-02-28T18:40:40.542Z,38.40
2019-02-28T18:43:11.813Z,48.10
2019-02-28T18:45:42.790Z,39.33
2019-02-28T18:48:14.663Z,38.97
2019-02-28T18:50:46.450Z,36.87
2019-02-28T18:53:17.353Z,35.77
2019-02-28T18:55:48.154Z,39.90
2019-02-28T18:58:19.070Z,44.07
2019-02-28T19:00:49.960Z,44.00
2019-02-28T19:03:21.302Z,41.80
2019-02-28T19:05:52.183Z,43.77
2019-02-28T19:08:23.088Z,44.47
2019-02-28T19:10:55.051Z,47.73
2019-02-28T19:13:26.035Z,39.57
2019-02-28T19:15:56.795Z,48.07
2019-02-28T19:18:27.543Z,41.67
2019-02-28T19:20:58.371Z,38.53
2019-02-28T19:23:29.370Z,44.60
2019-02-28T19:26:00.506Z,45.77
2019-02-28T19:28:31.675Z,45.60
2019-02-28T19:31:02.537Z,41.33
2019-02-28T19:33:33.513Z,45.10
2019-02-28T19:36:04.499Z,48.93
2019-02-28T19:38:35.727Z,43.70
2019-02-28T19:41:06.837Z,46.93
2019-02-28T19:43:37.831Z,42.63
2019-02-28T19:46:09.403Z,47.63
2019-02-28T19:48:41.216Z,46.43
2019-02-28T19:51:13.264Z,44.37
2019-02-28T19:53:45.178Z,55.90
2019-02-28T19:56:16.272Z,51.53
2019-02-28T19:58:47.051Z,47.33
2019-02-28T20:01:19.524Z,47.83
2019-02-28T20:03:50.812Z,47.57
2019-02-28T20:06:22.033Z,48.97
2019-02-28T20:08:53.391Z,52.17
2019-02-28T20:11:24.349Z,53.50
2019-02-28T20:13:57.311Z,65.53
2019-02-28T20:16:28.146Z,49.50
2019-02-28T20:18:59.251Z,60.90
2019-02-28T20:21:30.147Z,51.83
2019-02-28T20:24:01.318Z,54.17
2019-02-28T20:26:32.457Z,48.57
2019-02-28T20:29:03.630Z,49.13
2019-02-28T20:31:34.704Z,59.70
2019-02-28T20:34:06.320Z,50.53
2019-02-28T20:36:37.286Z,52.77
2019-02-28T20:39:10.538Z,63.70
2019-02-28T20:41:41.933Z,59.57
2019-02-28T20:44:13.140Z,51.83
2019-02-28T20:46:43.850Z,63.13
2019-02-28T20:49:15.300Z,63.63
2019-02-28T20:51:54.826Z,56.77
2019-02-28T20:54:20.289Z,54.13
2019-02-28T20:56:51.466Z,53.37
2019-02-28T20:59:22.364Z,47.13
2019-02-28T21:01:53.680Z,52.33
2019-02-28T21:04:24.614Z,63.33
2019-02-28T21:06:55.846Z,52.10
2019-02-28T21:09:27.077Z,54.00
2019-02-28T21:11:58.556Z,56.17
2019-02-28T21:14:29.374Z,65.50
2019-02-28T21:17:01.415Z,66.70
2019-02-28T21:19:32.485Z,50.73
2019-02-28T21:22:03.554Z,51.43
2019-02-28T21:24:34.374Z,57.57
2019-02-28T21:27:05.376Z,77.27
2019-02-28T21:29:36.096Z,60.33
2019-02-28T21:32:06.807Z,60.83
2019-02-28T21:34:37.521Z,57.57
2019-02-28T21:37:08.827Z,61.90
2019-02-28T21:39:39.938Z,50.07
2019-02-28T21:42:10.916Z,60.97
2019-02-28T21:44:41.799Z,55.80
2019-02-28T21:47:14.362Z,60.43
2019-02-28T21:49:45.576Z,58.77
2019-02-28T21:52:16.497Z,52.63
2019-02-28T21:54:47.459Z,65.97
2019-02-28T21:57:18.433Z,59.17
2019-02-28T21:59:49.437Z,57.33
2019-02-28T22:02:20.433Z,60.33
2019-02-28T22:04:51.486Z,62.57
2019-02-28T22:07:22.554Z,62.47
2019-02-28T22:09:53.755Z,65.87
2019-02-28T22:12:24.568Z,68.30
2019-02-28T22:14:55.690Z,62.20
2019-02-28T22:17:26.409Z,62.20
2019-02-28T22:19:57.116Z,64.33
2019-02-28T22:22:28.092Z,71.23
2019-02-28T22:24:59.003Z,64.87
2019-02-28T22:27:32.766Z,68.63
2019-02-28T22:30:15.441Z,67.67
2019-02-28T22:32:50.595Z,63.97
2019-02-28T22:35:33.846Z,64.30
2019-02-28T22:38:05.069Z,53.63
2019-02-28T22:40:35.930Z,67.43
2019-02-28T22:43:06.980Z,70.80
2019-02-28T22:45:38.085Z,59.37
2019-02-28T22:48:09.490Z,71.17
2019-02-28T22:50:40.466Z,65.80
2019-02-28T22:53:11.351Z,56.87
2019-02-28T22:55:42.476Z,55.73
2019-02-28T22:58:13.648Z,59.40
2019-02-28T23:00:59.198Z,63.13
2019-02-28T23:03:31.447Z,58.33
2019-02-28T23:06:03.552Z,80.83
2019-02-28T23:08:34.579Z,62.53
2019-02-28T23:11:05.983Z,71.40
2019-02-28T23:13:36.814Z,66.97
2019-02-28T23:16:08.043Z,64.33
2019-02-28T23:18:38.845Z,58.27
2019-02-28T23:21:09.593Z,66.87
2019-02-28T23:23:40.251Z,63.97
2019-02-28T23:26:13.090Z,59.87
2019-02-28T23:29:06.587Z,70.07
2019-02-28T23:32:14.106Z,59.63
2019-02-28T23:34:48.495Z,63.63
2019-02-28T23:37:20.842Z,63.63
2019-02-28T23:39:51.657Z,64.47
2019-02-28T23:42:22.329Z,67.93
2019-02-28T23:44:53.162Z,73.27
2019-02-28T23:47:23.923Z,70.90
2019-02-28T23:49:54.577Z,71.57
2019-02-28T23:52:25.430Z,81.57
2019-02-28T23:54:56.033Z,66.53
2019-02-28T23:57:26.897Z,72.17
2019-02-28T23:59:57.858Z,71.10
